Sunday, July 22, 2018, 10:35 AM EDT
Back to Local

KGFL, Floyd Bennett Memorial Airport

Location: Queensbury, NY, United States Lat: 43.333
Local Time: 10:35 AM EDT (14:35 GMT) Lon: -73.617
Time Zone: US/Eastern Elev: 328 ft

Show me the last for .
Show Decoded

2018-07-22 09:53 METAR KGFL 221353Z AUTO 03008KT 10SM BKN044 OVC060 18/17 A2997 RMK AO2 RAE39
                 SLP148 P0001 T01830172 =
2018-07-22 08:53 METAR KGFL 221253Z AUTO 03008KT 9SM -RA FEW030 BKN065 OVC080 18/17 A2996 RMK AO2
                 RAB1155 SLP145 P0005 T01780167 =
2018-07-22 07:53 METAR KGFL 221153Z AUTO 02008KT 10SM FEW032 BKN050 OVC095 18/16 A2997 RMK AO2
                 RAE43 SLP147 P0000 60006 70006 T01780156 10194 20167 56006 =
2018-07-22 06:53 METAR KGFL 221053Z AUTO 02008KT 10SM -RA FEW060 OVC085 17/15 A2997 RMK AO2
                 SLP147 P0002 T01720150 =
2018-07-22 05:53 METAR KGFL 220953Z AUTO 02009KT 10SM -RA OVC080 17/14 A2998 RMK AO2 SLP149 P0002
                 T01670144 =
2018-07-22 04:53 METAR KGFL 220853Z AUTO 03004KT 10SM -RA SCT041 BKN060 OVC080 17/14 A2999 RMK
                 AO2 SLP153 P0000 60002 T01720144 58009 =
2018-07-22 03:53 METAR KGFL 220753Z AUTO 03007KT 10SM -RA SCT055 SCT070 OVC100 18/14 A3000 RMK
                 AO2 RAB10 SLP158 P0002 T01780144 =
2018-07-22 02:53 METAR KGFL 220653Z AUTO 05009KT 10SM OVC075 19/12 A3001 RMK AO2 SLP159 T01940122
                 =
2018-07-22 01:53 METAR KGFL 220553Z AUTO 04007KT 10SM OVC060 19/13 A3002 RMK AO2 SLP162 T01940133
                 10250 20189 56016 =
2018-07-22 00:53 METAR KGFL 220453Z AUTO 01005KT 10SM CLR 19/13 A3003 RMK AO2 SLP166 T01940133
                 402940117 =
2018-07-21 23:53 METAR KGFL 220353Z AUTO 05006KT 10SM CLR 20/13 A3004 RMK AO2 SLP171 T02000128 =
2018-07-21 22:53 METAR KGFL 220253Z AUTO 10004KT 10SM CLR 20/13 A3006 RMK AO2 SLP179 T02000128
                 51009 =
2018-07-21 21:53 METAR KGFL 220153Z AUTO 13007KT 10SM CLR 22/13 A3006 RMK AO2 SLP178 T02220128 =
2018-07-21 20:53 METAR KGFL 220053Z AUTO 15007KT 10SM CLR 23/13 A3005 RMK AO2 SLP174 T02330128 =
2018-07-21 19:53 METAR KGFL 212353Z AUTO 13005KT 10SM CLR 24/13 A3004 RMK AO2 SLP170 T02440128
                 10294 20244 53007 =
2018-07-21 18:53 METAR KGFL 212253Z AUTO 10007KT 10SM CLR 27/14 A3002 RMK AO2 SLP165 T02670139 =
2018-07-21 17:53 METAR KGFL 212153Z AUTO 12009KT 10SM CLR 28/13 A3001 RMK AO2 SLP162 T02780128 =
2018-07-21 16:53 METAR KGFL 212053Z AUTO VRB05KT 10SM CLR 28/11 A3002 RMK AO2 SLP163 T02830111
                 56014 =
2018-07-21 15:53 METAR KGFL 211953Z AUTO 18010KT 10SM CLR 29/12 A3003 RMK AO2 SLP168 T02940117 =
2018-07-21 14:53 METAR KGFL 211853Z AUTO VRB05KT 10SM FEW060 28/14 A3004 RMK AO2 SLP171 T02780139
                 =
2018-07-21 13:53 METAR KGFL 211753Z AUTO 10009KT 10SM CLR 27/13 A3006 RMK AO2 SLP178 T02720133
                 10278 20194 58021 =
2018-07-21 12:53 METAR KGFL 211653Z AUTO VRB06KT 10SM CLR 26/13 A3009 RMK AO2 SLP187 T02610133 =
2018-07-21 11:53 METAR KGFL 211553Z AUTO 19005KT 10SM CLR 24/14 A3011 RMK AO2 SLP196 T02440139 =
2018-07-21 10:53 METAR KGFL 211453Z AUTO 17006KT 10SM CLR 24/13 A3012 RMK AO2 SLP199 T02390128
                 58002 =

Support USWX by starting your Amazon purchase here.